sensor_id;sensor_type;location;lat;lon;timestamp;P1;durP1;ratioP1;P2;durP2;ratioP2
663;SDS011;314;48.770;9.246;2022-09-02T00:01:14;2.92;;;1.88;;
663;SDS011;314;48.770;9.246;2022-09-02T00:03:54;4.13;;;3.08;;
663;SDS011;314;48.770;9.246;2022-09-02T00:06:22;4.75;;;2.67;;
663;SDS011;314;48.770;9.246;2022-09-02T00:08:48;7.45;;;2.97;;
663;SDS011;314;48.770;9.246;2022-09-02T00:11:16;3.30;;;2.30;;
663;SDS011;314;48.770;9.246;2022-09-02T00:13:44;3.78;;;2.80;;
663;SDS011;314;48.770;9.246;2022-09-02T00:16:10;1.95;;;1.85;;
663;SDS011;314;48.770;9.246;2022-09-02T00:18:37;2.50;;;1.90;;
663;SDS011;314;48.770;9.246;2022-09-02T00:21:04;6.60;;;3.38;;
663;SDS011;314;48.770;9.246;2022-09-02T00:23:30;4.18;;;3.92;;
663;SDS011;314;48.770;9.246;2022-09-02T00:25:56;4.93;;;2.90;;
663;SDS011;314;48.770;9.246;2022-09-02T00:28:22;5.90;;;3.10;;
663;SDS011;314;48.770;9.246;2022-09-02T00:30:48;2.60;;;2.10;;
663;SDS011;314;48.770;9.246;2022-09-02T00:33:14;3.83;;;2.67;;
663;SDS011;314;48.770;9.246;2022-09-02T00:35:40;4.10;;;2.72;;
663;SDS011;314;48.770;9.246;2022-09-02T00:38:06;7.97;;;3.33;;
663;SDS011;314;48.770;9.246;2022-09-02T00:40:32;3.20;;;2.60;;
663;SDS011;314;48.770;9.246;2022-09-02T00:42:58;8.02;;;3.53;;
663;SDS011;314;48.770;9.246;2022-09-02T00:45:24;4.00;;;3.00;;
663;SDS011;314;48.770;9.246;2022-09-02T00:47:50;4.22;;;2.50;;
663;SDS011;314;48.770;9.246;2022-09-02T00:50:18;2.60;;;2.30;;
663;SDS011;314;48.770;9.246;2022-09-02T00:52:52;6.55;;;2.83;;
663;SDS011;314;48.770;9.246;2022-09-02T00:55:28;2.08;;;1.95;;
663;SDS011;314;48.770;9.246;2022-09-02T00:58:08;3.05;;;2.63;;
663;SDS011;314;48.770;9.246;2022-09-02T01:00:40;3.50;;;2.35;;
663;SDS011;314;48.770;9.246;2022-09-02T01:03:09;4.38;;;2.90;;
663;SDS011;314;48.770;9.246;2022-09-02T01:05:39;3.55;;;2.38;;
663;SDS011;314;48.770;9.246;2022-09-02T01:08:09;3.25;;;2.92;;
663;SDS011;314;48.770;9.246;2022-09-02T01:10:41;3.97;;;2.42;;
663;SDS011;314;48.770;9.246;2022-09-02T01:13:10;3.63;;;2.90;;
663;SDS011;314;48.770;9.246;2022-09-02T01:15:45;3.33;;;3.00;;
663;SDS011;314;48.770;9.246;2022-09-02T01:18:18;4.45;;;3.20;;
663;SDS011;314;48.770;9.246;2022-09-02T01:20:48;7.28;;;4.07;;
663;SDS011;314;48.770;9.246;2022-09-02T01:23:15;5.32;;;2.65;;
663;SDS011;314;48.770;9.246;2022-09-02T01:25:42;4.55;;;3.47;;
663;SDS011;314;48.770;9.246;2022-09-02T01:28:10;3.25;;;2.63;;
663;SDS011;314;48.770;9.246;2022-09-02T01:30:38;2.75;;;2.55;;
663;SDS011;314;48.770;9.246;2022-09-02T01:33:06;5.15;;;2.65;;
663;SDS011;314;48.770;9.246;2022-09-02T01:35:33;1.92;;;1.85;;
663;SDS011;314;48.770;9.246;2022-09-02T01:37:59;5.25;;;2.15;;
663;SDS011;314;48.770;9.246;2022-09-02T01:40:27;3.05;;;2.80;;
663;SDS011;314;48.770;9.246;2022-09-02T01:42:55;4.75;;;2.38;;
663;SDS011;314;48.770;9.246;2022-09-02T01:45:24;2.95;;;2.40;;
663;SDS011;314;48.770;9.246;2022-09-02T01:47:50;5.22;;;3.17;;
663;SDS011;314;48.770;9.246;2022-09-02T01:50:16;2.92;;;1.80;;
663;SDS011;314;48.770;9.246;2022-09-02T01:52:43;2.85;;;1.80;;
663;SDS011;314;48.770;9.246;2022-09-02T01:55:09;6.33;;;3.20;;
663;SDS011;314;48.770;9.246;2022-09-02T01:57:35;7.18;;;3.08;;
663;SDS011;314;48.770;9.246;2022-09-02T02:00:01;4.30;;;2.40;;
663;SDS011;314;48.770;9.246;2022-09-02T02:02:28;5.72;;;2.90;;
663;SDS011;314;48.770;9.246;2022-09-02T02:04:54;3.33;;;3.13;;
663;SDS011;314;48.770;9.246;2022-09-02T02:07:20;3.63;;;2.40;;
663;SDS011;314;48.770;9.246;2022-09-02T02:09:47;7.07;;;2.92;;
663;SDS011;314;48.770;9.246;2022-09-02T02:12:13;3.85;;;2.70;;
663;SDS011;314;48.770;9.246;2022-09-02T02:14:39;5.53;;;3.00;;
663;SDS011;314;48.770;9.246;2022-09-02T02:17:05;2.83;;;1.93;;
663;SDS011;314;48.770;9.246;2022-09-02T02:19:31;3.60;;;2.53;;
663;SDS011;314;48.770;9.246;2022-09-02T02:21:58;2.88;;;2.67;;
663;SDS011;314;48.770;9.246;2022-09-02T02:24:23;4.00;;;2.80;;
663;SDS011;314;48.770;9.246;2022-09-02T02:26:49;3.60;;;2.30;;
663;SDS011;314;48.770;9.246;2022-09-02T02:29:15;2.10;;;1.87;;
663;SDS011;314;48.770;9.246;2022-09-02T02:31:41;3.08;;;1.95;;
663;SDS011;314;48.770;9.246;2022-09-02T02:34:08;5.47;;;2.22;;
663;SDS011;314;48.770;9.246;2022-09-02T02:36:35;3.33;;;2.58;;
663;SDS011;314;48.770;9.246;2022-09-02T02:39:01;3.88;;;2.38;;
663;SDS011;314;48.770;9.246;2022-09-02T02:41:29;3.10;;;2.03;;
663;SDS011;314;48.770;9.246;2022-09-02T02:43:55;4.40;;;2.55;;
663;SDS011;314;48.770;9.246;2022-09-02T02:46:21;9.93;;;2.03;;
663;SDS011;314;48.770;9.246;2022-09-02T02:48:47;3.13;;;2.17;;
663;SDS011;314;48.770;9.246;2022-09-02T02:51:13;3.53;;;1.83;;
663;SDS011;314;48.770;9.246;2022-09-02T02:53:39;4.00;;;2.00;;
663;SDS011;314;48.770;9.246;2022-09-02T02:56:05;3.43;;;1.83;;
663;SDS011;314;48.770;9.246;2022-09-02T02:58:31;3.83;;;1.95;;
663;SDS011;314;48.770;9.246;2022-09-02T03:00:58;2.60;;;2.22;;
663;SDS011;314;48.770;9.246;2022-09-02T03:03:25;3.85;;;2.70;;
663;SDS011;314;48.770;9.246;2022-09-02T03:05:51;2.55;;;1.90;;
663;SDS011;314;48.770;9.246;2022-09-02T03:08:18;2.38;;;2.10;;
663;SDS011;314;48.770;9.246;2022-09-02T03:10:45;2.90;;;1.92;;
663;SDS011;314;48.770;9.246;2022-09-02T03:13:13;2.03;;;1.80;;
663;SDS011;314;48.770;9.246;2022-09-02T03:15:39;4.50;;;2.58;;
663;SDS011;314;48.770;9.246;2022-09-02T03:18:05;1.73;;;1.67;;
663;SDS011;314;48.770;9.246;2022-09-02T03:20:32;2.75;;;2.42;;
663;SDS011;314;48.770;9.246;2022-09-02T03:22:58;5.30;;;2.50;;
663;SDS011;314;48.770;9.246;2022-09-02T03:25:25;3.50;;;2.15;;
663;SDS011;314;48.770;9.246;2022-09-02T03:27:53;1.90;;;1.85;;
663;SDS011;314;48.770;9.246;2022-09-02T03:30:20;1.90;;;1.90;;
663;SDS011;314;48.770;9.246;2022-09-02T03:32:49;4.60;;;2.05;;
663;SDS011;314;48.770;9.246;2022-09-02T03:35:19;5.05;;;2.35;;
663;SDS011;314;48.770;9.246;2022-09-02T03:37:47;3.83;;;2.03;;
663;SDS011;314;48.770;9.246;2022-09-02T03:40:15;2.50;;;1.90;;
663;SDS011;314;48.770;9.246;2022-09-02T03:42:43;4.57;;;2.20;;
663;SDS011;314;48.770;9.246;2022-09-02T03:45:10;13.35;;;2.85;;
663;SDS011;314;48.770;9.246;2022-09-02T03:47:38;6.13;;;2.85;;
663;SDS011;314;48.770;9.246;2022-09-02T03:50:09;2.75;;;2.35;;
663;SDS011;314;48.770;9.246;2022-09-02T03:52:35;2.38;;;2.22;;
663;SDS011;314;48.770;9.246;2022-09-02T03:55:01;2.20;;;1.67;;
663;SDS011;314;48.770;9.246;2022-09-02T03:57:29;2.95;;;1.92;;
663;SDS011;314;48.770;9.246;2022-09-02T03:59:55;2.20;;;2.00;;
663;SDS011;314;48.770;9.246;2022-09-02T04:02:21;2.87;;;2.30;;
663;SDS011;314;48.770;9.246;2022-09-02T04:04:48;2.55;;;1.75;;
663;SDS011;314;48.770;9.246;2022-09-02T04:07:14;6.37;;;2.07;;
663;SDS011;314;48.770;9.246;2022-09-02T04:09:39;3.30;;;2.13;;
663;SDS011;314;48.770;9.246;2022-09-02T04:12:05;3.70;;;2.07;;
663;SDS011;314;48.770;9.246;2022-09-02T04:14:31;1.60;;;1.50;;
663;SDS011;314;48.770;9.246;2022-09-02T04:16:57;4.47;;;1.90;;
663;SDS011;314;48.770;9.246;2022-09-02T04:19:23;2.20;;;2.07;;
663;SDS011;314;48.770;9.246;2022-09-02T04:21:49;3.73;;;2.33;;
663;SDS011;314;48.770;9.246;2022-09-02T04:24:14;2.90;;;2.10;;
663;SDS011;314;48.770;9.246;2022-09-02T04:26:40;2.73;;;1.70;;
663;SDS011;314;48.770;9.246;2022-09-02T04:29:06;3.63;;;2.30;;
663;SDS011;314;48.770;9.246;2022-09-02T04:31:33;4.07;;;2.50;;
663;SDS011;314;48.770;9.246;2022-09-02T04:33:59;2.30;;;2.10;;
663;SDS011;314;48.770;9.246;2022-09-02T04:36:25;6.43;;;2.80;;
663;SDS011;314;48.770;9.246;2022-09-02T04:38:52;3.47;;;2.30;;
663;SDS011;314;48.770;9.246;2022-09-02T04:41:20;3.45;;;2.03;;
663;SDS011;314;48.770;9.246;2022-09-02T04:43:47;2.67;;;2.47;;
663;SDS011;314;48.770;9.246;2022-09-02T04:46:14;4.10;;;2.55;;
663;SDS011;314;48.770;9.246;2022-09-02T04:48:41;4.13;;;2.85;;
663;SDS011;314;48.770;9.246;2022-09-02T04:51:09;2.90;;;2.10;;
663;SDS011;314;48.770;9.246;2022-09-02T04:53:53;2.42;;;2.22;;
663;SDS011;314;48.770;9.246;2022-09-02T04:56:23;6.43;;;3.67;;
663;SDS011;314;48.770;9.246;2022-09-02T04:58:50;2.40;;;2.10;;
663;SDS011;314;48.770;9.246;2022-09-02T05:01:21;3.83;;;2.30;;
663;SDS011;314;48.770;9.246;2022-09-02T05:03:50;5.05;;;2.38;;
663;SDS011;314;48.770;9.246;2022-09-02T05:06:19;2.15;;;1.98;;
663;SDS011;314;48.770;9.246;2022-09-02T05:08:47;5.13;;;2.40;;
663;SDS011;314;48.770;9.246;2022-09-02T05:11:14;4.47;;;2.90;;
663;SDS011;314;48.770;9.246;2022-09-02T05:13:46;3.85;;;2.45;;
663;SDS011;314;48.770;9.246;2022-09-02T05:16:16;2.55;;;2.30;;
663;SDS011;314;48.770;9.246;2022-09-02T05:18:46;3.53;;;2.00;;
663;SDS011;314;48.770;9.246;2022-09-02T05:21:13;2.03;;;1.88;;
663;SDS011;314;48.770;9.246;2022-09-02T05:23:39;3.17;;;2.53;;
663;SDS011;314;48.770;9.246;2022-09-02T05:26:06;4.05;;;2.90;;
663;SDS011;314;48.770;9.246;2022-09-02T05:28:33;4.15;;;2.63;;
663;SDS011;314;48.770;9.246;2022-09-02T05:31:08;5.03;;;2.85;;
663;SDS011;314;48.770;9.246;2022-09-02T05:33:36;5.82;;;2.90;;
663;SDS011;314;48.770;9.246;2022-09-02T05:36:05;3.95;;;2.08;;
663;SDS011;314;48.770;9.246;2022-09-02T05:38:32;3.05;;;2.70;;
663;SDS011;314;48.770;9.246;2022-09-02T05:40:58;15.02;;;4.57;;
663;SDS011;314;48.770;9.246;2022-09-02T05:43:36;5.53;;;3.15;;
663;SDS011;314;48.770;9.246;2022-09-02T05:46:04;5.15;;;3.85;;
663;SDS011;314;48.770;9.246;2022-09-02T05:48:32;3.88;;;3.20;;
663;SDS011;314;48.770;9.246;2022-09-02T05:51:20;5.65;;;3.58;;
663;SDS011;314;48.770;9.246;2022-09-02T05:53:46;4.15;;;2.50;;
663;SDS011;314;48.770;9.246;2022-09-02T05:56:15;3.70;;;2.40;;
663;SDS011;314;48.770;9.246;2022-09-02T05:58:41;4.30;;;2.90;;
663;SDS011;314;48.770;9.246;2022-09-02T06:01:07;18.17;;;4.93;;
663;SDS011;314;48.770;9.246;2022-09-02T06:03:35;9.27;;;4.13;;
663;SDS011;314;48.770;9.246;2022-09-02T06:06:01;8.23;;;5.50;;
663;SDS011;314;48.770;9.246;2022-09-02T06:08:26;3.47;;;3.00;;
663;SDS011;314;48.770;9.246;2022-09-02T06:10:52;7.68;;;3.15;;
663;SDS011;314;48.770;9.246;2022-09-02T06:13:18;7.73;;;4.00;;
663;SDS011;314;48.770;9.246;2022-09-02T06:15:46;15.55;;;3.85;;
663;SDS011;314;48.770;9.246;2022-09-02T06:18:13;5.65;;;3.33;;
663;SDS011;314;48.770;9.246;2022-09-02T06:20:40;5.13;;;3.90;;
663;SDS011;314;48.770;9.246;2022-09-02T06:23:06;9.13;;;4.03;;
663;SDS011;314;48.770;9.246;2022-09-02T06:25:39;5.68;;;3.40;;
663;SDS011;314;48.770;9.246;2022-09-02T06:28:06;4.95;;;3.30;;
663;SDS011;314;48.770;9.246;2022-09-02T06:30:33;5.90;;;3.60;;
663;SDS011;314;48.770;9.246;2022-09-02T06:32:59;4.65;;;2.85;;
663;SDS011;314;48.770;9.246;2022-09-02T06:35:28;4.65;;;3.83;;
663;SDS011;314;48.770;9.246;2022-09-02T06:37:58;5.80;;;3.72;;
663;SDS011;314;48.770;9.246;2022-09-02T06:40:24;4.40;;;3.57;;
663;SDS011;314;48.770;9.246;2022-09-02T06:42:50;8.50;;;4.20;;
663;SDS011;314;48.770;9.246;2022-09-02T06:45:18;5.22;;;3.25;;
663;SDS011;314;48.770;9.246;2022-09-02T06:47:44;4.90;;;2.70;;
663;SDS011;314;48.770;9.246;2022-09-02T06:50:10;5.23;;;3.67;;
663;SDS011;314;48.770;9.246;2022-09-02T06:52:37;10.45;;;3.88;;
663;SDS011;314;48.770;9.246;2022-09-02T06:55:03;5.05;;;3.45;;
663;SDS011;314;48.770;9.246;2022-09-02T06:57:29;3.55;;;3.28;;
663;SDS011;314;48.770;9.246;2022-09-02T06:59:55;5.23;;;3.50;;
663;SDS011;314;48.770;9.246;2022-09-02T07:02:21;2.70;;;2.50;;
663;SDS011;314;48.770;9.246;2022-09-02T07:04:46;7.07;;;3.80;;
663;SDS011;314;48.770;9.246;2022-09-02T07:07:31;4.45;;;3.20;;
663;SDS011;314;48.770;9.246;2022-09-02T07:09:59;6.22;;;3.83;;
663;SDS011;314;48.770;9.246;2022-09-02T07:12:25;6.07;;;3.90;;
663;SDS011;314;48.770;9.246;2022-09-02T07:14:51;5.50;;;3.70;;
663;SDS011;314;48.770;9.246;2022-09-02T07:17:18;8.48;;;3.63;;
663;SDS011;314;48.770;9.246;2022-09-02T07:19:46;6.32;;;3.40;;
663;SDS011;314;48.770;9.246;2022-09-02T07:22:12;3.95;;;2.25;;
663;SDS011;314;48.770;9.246;2022-09-02T07:24:38;3.83;;;2.40;;
663;SDS011;314;48.770;9.246;2022-09-02T07:27:05;2.45;;;2.30;;
663;SDS011;314;48.770;9.246;2022-09-02T07:29:31;5.07;;;2.72;;
663;SDS011;314;48.770;9.246;2022-09-02T07:31:58;2.42;;;1.98;;
663;SDS011;314;48.770;9.246;2022-09-02T07:34:24;12.30;;;2.83;;
663;SDS011;314;48.770;9.246;2022-09-02T07:36:50;1.53;;;1.43;;
663;SDS011;314;48.770;9.246;2022-09-02T07:39:17;2.47;;;2.33;;
663;SDS011;314;48.770;9.246;2022-09-02T07:41:45;3.28;;;2.38;;
663;SDS011;314;48.770;9.246;2022-09-02T07:44:14;1.85;;;1.75;;
663;SDS011;314;48.770;9.246;2022-09-02T07:46:42;1.85;;;1.75;;
663;SDS011;314;48.770;9.246;2022-09-02T07:49:09;2.60;;;2.40;;
663;SDS011;314;48.770;9.246;2022-09-02T07:51:37;2.22;;;1.73;;
663;SDS011;314;48.770;9.246;2022-09-02T07:54:05;3.15;;;2.50;;
663;SDS011;314;48.770;9.246;2022-09-02T07:56:33;2.45;;;1.77;;
663;SDS011;314;48.770;9.246;2022-09-02T07:58:58;2.43;;;1.40;;
663;SDS011;314;48.770;9.246;2022-09-02T08:01:25;2.60;;;1.45;;
663;SDS011;314;48.770;9.246;2022-09-02T08:03:51;1.60;;;1.50;;
663;SDS011;314;48.770;9.246;2022-09-02T08:06:18;1.55;;;1.45;;
663;SDS011;314;48.770;9.246;2022-09-02T08:08:45;4.15;;;2.15;;
663;SDS011;314;48.770;9.246;2022-09-02T08:11:11;1.42;;;1.35;;
663;SDS011;314;48.770;9.246;2022-09-02T08:13:38;1.80;;;1.60;;
663;SDS011;314;48.770;9.246;2022-09-02T08:16:04;1.30;;;1.20;;
663;SDS011;314;48.770;9.246;2022-09-02T08:18:30;4.75;;;1.50;;
663;SDS011;314;48.770;9.246;2022-09-02T08:20:57;5.75;;;1.55;;
663;SDS011;314;48.770;9.246;2022-09-02T08:23:22;2.50;;;1.83;;
663;SDS011;314;48.770;9.246;2022-09-02T08:25:48;2.00;;;1.40;;
663;SDS011;314;48.770;9.246;2022-09-02T08:28:14;1.03;;;1.00;;
663;SDS011;314;48.770;9.246;2022-09-02T08:30:40;1.83;;;1.57;;
663;SDS011;314;48.770;9.246;2022-09-02T08:33:06;2.00;;;1.30;;
663;SDS011;314;48.770;9.246;2022-09-02T08:35:32;1.93;;;1.20;;
663;SDS011;314;48.770;9.246;2022-09-02T08:37:58;1.70;;;1.60;;
663;SDS011;314;48.770;9.246;2022-09-02T08:40:27;5.00;;;1.67;;
663;SDS011;314;48.770;9.246;2022-09-02T08:43:02;1.58;;;1.40;;
663;SDS011;314;48.770;9.246;2022-09-02T08:45:37;1.40;;;1.30;;
663;SDS011;314;48.770;9.246;2022-09-02T08:48:22;1.35;;;1.30;;
663;SDS011;314;48.770;9.246;2022-09-02T08:51:00;1.95;;;1.50;;
663;SDS011;314;48.770;9.246;2022-09-02T08:53:34;2.10;;;1.15;;
663;SDS011;314;48.770;9.246;2022-09-02T08:56:10;7.30;;;2.20;;
663;SDS011;314;48.770;9.246;2022-09-02T08:58:42;5.97;;;2.20;;
663;SDS011;314;48.770;9.246;2022-09-02T09:12:57;1.75;;;1.25;;
663;SDS011;314;48.770;9.246;2022-09-02T09:18:10;1.58;;;1.52;;
663;SDS011;314;48.770;9.246;2022-09-02T09:20:41;1.13;;;1.10;;
663;SDS011;314;48.770;9.246;2022-09-02T09:26:05;1.48;;;1.33;;
663;SDS011;314;48.770;9.246;2022-09-02T09:28:42;1.88;;;1.48;;
663;SDS011;314;48.770;9.246;2022-09-02T09:31:13;1.05;;;0.98;;
663;SDS011;314;48.770;9.246;2022-09-02T09:34:00;3.33;;;1.35;;
663;SDS011;314;48.770;9.246;2022-09-02T09:39:24;2.00;;;1.40;;
663;SDS011;314;48.770;9.246;2022-09-02T09:41:55;1.80;;;1.20;;
663;SDS011;314;48.770;9.246;2022-09-02T09:47:07;2.20;;;1.42;;
663;SDS011;314;48.770;9.246;2022-09-02T09:49:35;2.15;;;1.42;;
663;SDS011;314;48.770;9.246;2022-09-02T09:52:03;4.22;;;1.35;;
663;SDS011;314;48.770;9.246;2022-09-02T09:54:29;1.25;;;1.10;;
663;SDS011;314;48.770;9.246;2022-09-02T09:56:54;1.60;;;1.10;;
663;SDS011;314;48.770;9.246;2022-09-02T09:59:31;1.15;;;0.95;;
663;SDS011;314;48.770;9.246;2022-09-02T10:02:32;1.25;;;1.25;;
663;SDS011;314;48.770;9.246;2022-09-02T10:05:16;2.70;;;1.25;;
663;SDS011;314;48.770;9.246;2022-09-02T10:08:06;1.77;;;1.30;;
663;SDS011;314;48.770;9.246;2022-09-02T10:11:02;1.55;;;1.45;;
663;SDS011;314;48.770;9.246;2022-09-02T10:13:45;2.40;;;1.30;;
663;SDS011;314;48.770;9.246;2022-09-02T10:16:17;1.10;;;1.00;;
663;SDS011;314;48.770;9.246;2022-09-02T10:30:20;0.98;;;0.93;;
663;SDS011;314;48.770;9.246;2022-09-02T10:35:20;3.80;;;1.00;;
663;SDS011;314;48.770;9.246;2022-09-02T10:41:02;0.82;;;0.80;;
663;SDS011;314;48.770;9.246;2022-09-02T10:46:43;1.00;;;0.90;;
663;SDS011;314;48.770;9.246;2022-09-02T10:49:23;4.55;;;1.67;;
663;SDS011;314;48.770;9.246;2022-09-02T11:00:20;2.70;;;1.48;;
663;SDS011;314;48.770;9.246;2022-09-02T11:02:56;1.33;;;1.15;;
663;SDS011;314;48.770;9.246;2022-09-02T11:08:09;1.63;;;1.20;;
663;SDS011;314;48.770;9.246;2022-09-02T11:18:54;1.42;;;1.15;;
663;SDS011;314;48.770;9.246;2022-09-02T11:24:28;1.40;;;1.10;;
663;SDS011;314;48.770;9.246;2022-09-02T11:27:08;2.35;;;1.65;;
663;SDS011;314;48.770;9.246;2022-09-02T11:32:19;1.50;;;0.90;;
663;SDS011;314;48.770;9.246;2022-09-02T11:35:02;1.60;;;1.25;;
663;SDS011;314;48.770;9.246;2022-09-02T11:37:37;2.45;;;1.10;;
663;SDS011;314;48.770;9.246;2022-09-02T11:40:17;1.98;;;1.10;;
663;SDS011;314;48.770;9.246;2022-09-02T11:45:50;3.00;;;1.15;;
663;SDS011;314;48.770;9.246;2022-09-02T11:48:45;1.45;;;1.35;;
663;SDS011;314;48.770;9.246;2022-09-02T11:53:59;1.33;;;1.08;;
663;SDS011;314;48.770;9.246;2022-09-02T11:56:28;1.48;;;1.20;;
663;SDS011;314;48.770;9.246;2022-09-02T11:59:00;2.38;;;1.50;;
663;SDS011;314;48.770;9.246;2022-09-02T12:01:37;1.25;;;1.00;;
663;SDS011;314;48.770;9.246;2022-09-02T12:20:08;1.35;;;1.13;;
663;SDS011;314;48.770;9.246;2022-09-02T12:22:36;1.55;;;1.45;;
663;SDS011;314;48.770;9.246;2022-09-02T12:25:04;1.05;;;1.00;;
663;SDS011;314;48.770;9.246;2022-09-02T12:33:33;1.10;;;1.00;;
663;SDS011;314;48.770;9.246;2022-09-02T12:36:04;1.80;;;1.17;;
663;SDS011;314;48.770;9.246;2022-09-02T12:38:37;1.20;;;1.10;;
663;SDS011;314;48.770;9.246;2022-09-02T12:57:04;1.10;;;1.10;;
663;SDS011;314;48.770;9.246;2022-09-02T12:59:33;1.13;;;1.02;;
663;SDS011;314;48.770;9.246;2022-09-02T13:04:57;1.35;;;1.00;;
663;SDS011;314;48.770;9.246;2022-09-02T13:13:28;1.40;;;1.15;;
663;SDS011;314;48.770;9.246;2022-09-02T13:18:53;2.28;;;1.20;;
663;SDS011;314;48.770;9.246;2022-09-02T13:24:00;1.05;;;1.00;;
663;SDS011;314;48.770;9.246;2022-09-02T13:29:38;1.05;;;0.95;;
663;SDS011;314;48.770;9.246;2022-09-02T13:32:24;3.55;;;1.58;;
663;SDS011;314;48.770;9.246;2022-09-02T13:34:54;1.30;;;1.10;;
663;SDS011;314;48.770;9.246;2022-09-02T13:37:27;1.20;;;1.10;;
663;SDS011;314;48.770;9.246;2022-09-02T13:40:03;2.05;;;1.20;;
663;SDS011;314;48.770;9.246;2022-09-02T13:42:45;3.22;;;1.60;;
663;SDS011;314;48.770;9.246;2022-09-02T13:45:14;1.05;;;1.02;;
663;SDS011;314;48.770;9.246;2022-09-02T13:47:49;2.17;;;1.35;;
663;SDS011;314;48.770;9.246;2022-09-02T13:50:19;1.10;;;1.05;;
663;SDS011;314;48.770;9.246;2022-09-02T13:52:49;1.30;;;1.20;;
663;SDS011;314;48.770;9.246;2022-09-02T13:55:17;1.55;;;1.30;;
663;SDS011;314;48.770;9.246;2022-09-02T13:57:45;2.15;;;1.30;;
663;SDS011;314;48.770;9.246;2022-09-02T14:02:56;1.55;;;1.20;;
663;SDS011;314;48.770;9.246;2022-09-02T14:05:31;1.30;;;1.25;;
663;SDS011;314;48.770;9.246;2022-09-02T14:08:00;3.58;;;1.05;;
663;SDS011;314;48.770;9.246;2022-09-02T14:10:29;1.50;;;1.40;;
663;SDS011;314;48.770;9.246;2022-09-02T14:12:58;2.75;;;1.65;;
663;SDS011;314;48.770;9.246;2022-09-02T14:15:28;1.60;;;1.50;;
663;SDS011;314;48.770;9.246;2022-09-02T14:23:19;1.50;;;1.30;;
663;SDS011;314;48.770;9.246;2022-09-02T14:25:55;1.40;;;1.27;;
663;SDS011;314;48.770;9.246;2022-09-02T14:28:24;1.42;;;1.33;;
663;SDS011;314;48.770;9.246;2022-09-02T14:33:42;1.98;;;1.25;;
663;SDS011;314;48.770;9.246;2022-09-02T14:38:48;1.70;;;1.50;;
663;SDS011;314;48.770;9.246;2022-09-02T14:43:44;1.33;;;1.27;;
663;SDS011;314;48.770;9.246;2022-09-02T14:46:13;1.40;;;1.05;;
663;SDS011;314;48.770;9.246;2022-09-02T14:49:06;1.10;;;1.10;;
663;SDS011;314;48.770;9.246;2022-09-02T14:54:04;2.88;;;1.58;;
663;SDS011;314;48.770;9.246;2022-09-02T14:56:50;1.13;;;1.02;;
663;SDS011;314;48.770;9.246;2022-09-02T14:59:17;1.50;;;1.40;;
663;SDS011;314;48.770;9.246;2022-09-02T15:01:46;2.90;;;2.00;;
663;SDS011;314;48.770;9.246;2022-09-02T15:04:16;1.45;;;1.42;;
663;SDS011;314;48.770;9.246;2022-09-02T15:06:43;0.95;;;0.95;;
663;SDS011;314;48.770;9.246;2022-09-02T15:09:11;1.00;;;1.00;;
663;SDS011;314;48.770;9.246;2022-09-02T15:11:39;1.00;;;0.90;;
663;SDS011;314;48.770;9.246;2022-09-02T15:14:10;4.47;;;1.90;;
663;SDS011;314;48.770;9.246;2022-09-02T15:16:37;3.05;;;1.60;;
663;SDS011;314;48.770;9.246;2022-09-02T15:19:03;2.30;;;1.20;;
663;SDS011;314;48.770;9.246;2022-09-02T15:21:30;1.97;;;1.00;;
663;SDS011;314;48.770;9.246;2022-09-02T15:23:56;1.20;;;1.10;;
663;SDS011;314;48.770;9.246;2022-09-02T15:26:22;2.40;;;1.30;;
663;SDS011;314;48.770;9.246;2022-09-02T15:28:47;2.97;;;1.13;;
663;SDS011;314;48.770;9.246;2022-09-02T15:31:13;1.63;;;0.93;;
663;SDS011;314;48.770;9.246;2022-09-02T15:33:39;1.65;;;1.27;;
663;SDS011;314;48.770;9.246;2022-09-02T15:38:33;1.30;;;1.20;;
663;SDS011;314;48.770;9.246;2022-09-02T15:41:09;1.90;;;1.33;;
663;SDS011;314;48.770;9.246;2022-09-02T15:43:36;1.40;;;1.33;;
663;SDS011;314;48.770;9.246;2022-09-02T15:46:02;1.65;;;1.20;;
663;SDS011;314;48.770;9.246;2022-09-02T15:48:39;1.85;;;1.40;;
663;SDS011;314;48.770;9.246;2022-09-02T15:51:15;1.57;;;1.40;;
663;SDS011;314;48.770;9.246;2022-09-02T15:53:42;2.40;;;1.55;;
663;SDS011;314;48.770;9.246;2022-09-02T15:56:14;1.10;;;1.00;;
663;SDS011;314;48.770;9.246;2022-09-02T15:58:41;1.67;;;1.10;;
663;SDS011;314;48.770;9.246;2022-09-02T16:01:07;1.00;;;0.93;;
663;SDS011;314;48.770;9.246;2022-09-02T16:03:33;1.07;;;0.97;;
663;SDS011;314;48.770;9.246;2022-09-02T16:06:03;1.75;;;1.20;;
663;SDS011;314;48.770;9.246;2022-09-02T16:08:32;1.58;;;1.20;;
663;SDS011;314;48.770;9.246;2022-09-02T16:11:02;1.15;;;1.10;;
663;SDS011;314;48.770;9.246;2022-09-02T16:13:29;1.85;;;1.50;;
663;SDS011;314;48.770;9.246;2022-09-02T16:15:59;3.27;;;1.60;;
663;SDS011;314;48.770;9.246;2022-09-02T16:18:26;1.38;;;1.17;;
663;SDS011;314;48.770;9.246;2022-09-02T16:20:51;1.57;;;1.40;;
663;SDS011;314;48.770;9.246;2022-09-02T16:23:17;1.10;;;1.00;;
663;SDS011;314;48.770;9.246;2022-09-02T16:25:43;1.60;;;1.07;;
663;SDS011;314;48.770;9.246;2022-09-02T16:28:09;1.17;;;1.17;;
663;SDS011;314;48.770;9.246;2022-09-02T16:30:36;4.13;;;1.92;;
663;SDS011;314;48.770;9.246;2022-09-02T16:33:02;1.53;;;1.23;;
663;SDS011;314;48.770;9.246;2022-09-02T16:35:28;1.23;;;1.13;;
663;SDS011;314;48.770;9.246;2022-09-02T16:37:54;1.60;;;1.17;;
663;SDS011;314;48.770;9.246;2022-09-02T16:40:20;3.20;;;1.63;;
663;SDS011;314;48.770;9.246;2022-09-02T16:42:46;1.80;;;1.70;;
663;SDS011;314;48.770;9.246;2022-09-02T16:45:13;1.58;;;1.23;;
663;SDS011;314;48.770;9.246;2022-09-02T16:47:39;3.30;;;1.27;;
663;SDS011;314;48.770;9.246;2022-09-02T16:50:04;2.20;;;1.20;;
663;SDS011;314;48.770;9.246;2022-09-02T16:52:31;1.48;;;1.40;;
663;SDS011;314;48.770;9.246;2022-09-02T16:54:59;1.50;;;1.40;;
663;SDS011;314;48.770;9.246;2022-09-02T16:57:25;2.30;;;1.40;;
663;SDS011;314;48.770;9.246;2022-09-02T16:59:51;1.33;;;1.23;;
663;SDS011;314;48.770;9.246;2022-09-02T17:02:16;2.70;;;1.40;;
663;SDS011;314;48.770;9.246;2022-09-02T17:04:42;1.90;;;1.27;;
663;SDS011;314;48.770;9.246;2022-09-02T17:07:08;2.10;;;1.33;;
663;SDS011;314;48.770;9.246;2022-09-02T17:09:34;1.43;;;1.00;;
663;SDS011;314;48.770;9.246;2022-09-02T17:12:00;1.50;;;1.40;;
663;SDS011;314;48.770;9.246;2022-09-02T17:14:25;1.08;;;1.00;;
663;SDS011;314;48.770;9.246;2022-09-02T17:16:51;1.97;;;1.30;;
663;SDS011;314;48.770;9.246;2022-09-02T17:19:17;3.93;;;2.03;;
663;SDS011;314;48.770;9.246;2022-09-02T17:21:50;3.65;;;2.13;;
663;SDS011;314;48.770;9.246;2022-09-02T17:24:18;2.55;;;1.30;;
663;SDS011;314;48.770;9.246;2022-09-02T17:26:50;1.80;;;1.30;;
663;SDS011;314;48.770;9.246;2022-09-02T17:29:19;1.20;;;1.10;;
663;SDS011;314;48.770;9.246;2022-09-02T17:31:46;3.30;;;1.98;;
663;SDS011;314;48.770;9.246;2022-09-02T17:34:12;2.25;;;1.45;;
663;SDS011;314;48.770;9.246;2022-09-02T17:36:39;2.78;;;2.08;;
663;SDS011;314;48.770;9.246;2022-09-02T17:39:09;1.77;;;1.52;;
663;SDS011;314;48.770;9.246;2022-09-02T17:41:36;3.08;;;1.70;;
663;SDS011;314;48.770;9.246;2022-09-02T17:44:25;1.80;;;0.85;;
663;SDS011;314;48.770;9.246;2022-09-02T17:46:57;1.50;;;1.17;;
663;SDS011;314;48.770;9.246;2022-09-02T17:49:24;1.17;;;1.17;;
663;SDS011;314;48.770;9.246;2022-09-02T17:51:50;1.42;;;1.10;;
663;SDS011;314;48.770;9.246;2022-09-02T17:54:16;1.40;;;1.40;;
663;SDS011;314;48.770;9.246;2022-09-02T17:59:36;1.30;;;1.25;;
663;SDS011;314;48.770;9.246;2022-09-02T18:11:03;3.50;;;2.28;;
663;SDS011;314;48.770;9.246;2022-09-02T18:16:40;2.15;;;1.40;;
663;SDS011;314;48.770;9.246;2022-09-02T18:24:45;2.00;;;1.70;;
663;SDS011;314;48.770;9.246;2022-09-02T18:27:18;4.93;;;2.35;;
663;SDS011;314;48.770;9.246;2022-09-02T18:30:08;2.03;;;1.60;;
663;SDS011;314;48.770;9.246;2022-09-02T18:38:37;2.25;;;1.77;;
663;SDS011;314;48.770;9.246;2022-09-02T18:41:42;1.65;;;1.55;;
663;SDS011;314;48.770;9.246;2022-09-02T18:47:05;3.05;;;2.10;;
663;SDS011;314;48.770;9.246;2022-09-02T18:49:55;3.67;;;2.38;;
663;SDS011;314;48.770;9.246;2022-09-02T18:52:25;2.40;;;1.95;;
663;SDS011;314;48.770;9.246;2022-09-02T18:57:24;2.22;;;1.58;;
663;SDS011;314;48.770;9.246;2022-09-02T19:02:33;4.82;;;1.95;;